sensor_id;sensor_type;location;lat;lon;timestamp;P1;durP1;ratioP1;P2;durP2;ratioP2
18435;SDS011;9346;52.006;4.720;2024-01-27T00:02:26;8.63;;;2.37;;
18435;SDS011;9346;52.006;4.720;2024-01-27T00:04:55;13.90;;;2.27;;
18435;SDS011;9346;52.006;4.720;2024-01-27T00:07:22;5.80;;;2.37;;
18435;SDS011;9346;52.006;4.720;2024-01-27T00:09:50;8.47;;;2.83;;
18435;SDS011;9346;52.006;4.720;2024-01-27T00:12:17;8.60;;;2.17;;
18435;SDS011;9346;52.006;4.720;2024-01-27T00:14:43;14.60;;;2.70;;
18435;SDS011;9346;52.006;4.720;2024-01-27T00:17:10;8.30;;;2.50;;
18435;SDS011;9346;52.006;4.720;2024-01-27T00:19:37;9.87;;;2.77;;
18435;SDS011;9346;52.006;4.720;2024-01-27T00:22:06;10.27;;;2.73;;
18435;SDS011;9346;52.006;4.720;2024-01-27T00:24:33;4.43;;;2.07;;
18435;SDS011;9346;52.006;4.720;2024-01-27T00:27:00;11.23;;;2.23;;
18435;SDS011;9346;52.006;4.720;2024-01-27T00:29:26;13.43;;;2.30;;
18435;SDS011;9346;52.006;4.720;2024-01-27T00:31:54;9.60;;;2.40;;
18435;SDS011;9346;52.006;4.720;2024-01-27T00:34:21;11.83;;;3.53;;
18435;SDS011;9346;52.006;4.720;2024-01-27T00:36:47;16.03;;;2.50;;
18435;SDS011;9346;52.006;4.720;2024-01-27T00:39:17;10.33;;;1.93;;
18435;SDS011;9346;52.006;4.720;2024-01-27T00:41:44;6.07;;;1.83;;
18435;SDS011;9346;52.006;4.720;2024-01-27T00:44:11;10.20;;;1.97;;
18435;SDS011;9346;52.006;4.720;2024-01-27T00:46:38;15.63;;;2.83;;
18435;SDS011;9346;52.006;4.720;2024-01-27T00:49:04;8.03;;;3.17;;
18435;SDS011;9346;52.006;4.720;2024-01-27T00:51:31;7.43;;;2.60;;
18435;SDS011;9346;52.006;4.720;2024-01-27T00:53:58;6.67;;;2.57;;
18435;SDS011;9346;52.006;4.720;2024-01-27T00:56:26;7.30;;;2.07;;
18435;SDS011;9346;52.006;4.720;2024-01-27T00:58:53;5.03;;;2.17;;
18435;SDS011;9346;52.006;4.720;2024-01-27T01:01:20;8.53;;;2.53;;
18435;SDS011;9346;52.006;4.720;2024-01-27T01:03:46;9.27;;;1.87;;
18435;SDS011;9346;52.006;4.720;2024-01-27T01:06:13;11.77;;;2.00;;
18435;SDS011;9346;52.006;4.720;2024-01-27T01:08:42;6.50;;;1.77;;
18435;SDS011;9346;52.006;4.720;2024-01-27T01:11:08;6.03;;;2.40;;
18435;SDS011;9346;52.006;4.720;2024-01-27T01:13:37;12.37;;;1.80;;
18435;SDS011;9346;52.006;4.720;2024-01-27T01:16:05;10.37;;;1.83;;
18435;SDS011;9346;52.006;4.720;2024-01-27T01:18:33;9.77;;;2.20;;
18435;SDS011;9346;52.006;4.720;2024-01-27T01:20:59;5.50;;;1.50;;
18435;SDS011;9346;52.006;4.720;2024-01-27T01:23:26;7.70;;;1.27;;
18435;SDS011;9346;52.006;4.720;2024-01-27T01:25:52;5.93;;;1.63;;
18435;SDS011;9346;52.006;4.720;2024-01-27T01:28:19;11.07;;;2.83;;
18435;SDS011;9346;52.006;4.720;2024-01-27T01:30:48;6.93;;;2.10;;
18435;SDS011;9346;52.006;4.720;2024-01-27T01:33:15;3.37;;;1.27;;
18435;SDS011;9346;52.006;4.720;2024-01-27T01:35:42;8.17;;;1.70;;
18435;SDS011;9346;52.006;4.720;2024-01-27T01:38:09;10.40;;;1.70;;
18435;SDS011;9346;52.006;4.720;2024-01-27T01:40:36;3.97;;;1.63;;
18435;SDS011;9346;52.006;4.720;2024-01-27T01:43:02;8.97;;;2.10;;
18435;SDS011;9346;52.006;4.720;2024-01-27T01:45:30;4.30;;;1.87;;
18435;SDS011;9346;52.006;4.720;2024-01-27T01:47:58;7.13;;;2.27;;
18435;SDS011;9346;52.006;4.720;2024-01-27T01:50:25;12.37;;;2.57;;
18435;SDS011;9346;52.006;4.720;2024-01-27T01:52:52;7.37;;;2.13;;
18435;SDS011;9346;52.006;4.720;2024-01-27T01:55:20;8.67;;;2.40;;
18435;SDS011;9346;52.006;4.720;2024-01-27T01:57:46;9.43;;;1.90;;
18435;SDS011;9346;52.006;4.720;2024-01-27T02:00:15;13.10;;;2.33;;
18435;SDS011;9346;52.006;4.720;2024-01-27T02:02:43;9.07;;;2.60;;
18435;SDS011;9346;52.006;4.720;2024-01-27T02:05:12;10.43;;;2.23;;
18435;SDS011;9346;52.006;4.720;2024-01-27T02:07:39;7.70;;;1.70;;
18435;SDS011;9346;52.006;4.720;2024-01-27T02:10:07;11.67;;;3.17;;
18435;SDS011;9346;52.006;4.720;2024-01-27T02:12:39;10.23;;;2.37;;
18435;SDS011;9346;52.006;4.720;2024-01-27T02:15:09;8.30;;;2.23;;
18435;SDS011;9346;52.006;4.720;2024-01-27T02:17:36;6.83;;;1.60;;
18435;SDS011;9346;52.006;4.720;2024-01-27T02:20:03;7.97;;;2.37;;
18435;SDS011;9346;52.006;4.720;2024-01-27T02:22:33;7.63;;;2.13;;
18435;SDS011;9346;52.006;4.720;2024-01-27T02:25:02;5.63;;;1.50;;
18435;SDS011;9346;52.006;4.720;2024-01-27T02:27:29;2.73;;;1.60;;
18435;SDS011;9346;52.006;4.720;2024-01-27T02:29:55;5.57;;;1.43;;
18435;SDS011;9346;52.006;4.720;2024-01-27T02:32:22;2.37;;;1.10;;
18435;SDS011;9346;52.006;4.720;2024-01-27T02:34:49;8.00;;;1.67;;
18435;SDS011;9346;52.006;4.720;2024-01-27T02:37:17;5.40;;;1.47;;
18435;SDS011;9346;52.006;4.720;2024-01-27T02:39:44;10.33;;;1.80;;
18435;SDS011;9346;52.006;4.720;2024-01-27T02:42:13;4.83;;;1.17;;
18435;SDS011;9346;52.006;4.720;2024-01-27T02:44:39;7.93;;;1.70;;
18435;SDS011;9346;52.006;4.720;2024-01-27T02:47:06;5.77;;;1.37;;
18435;SDS011;9346;52.006;4.720;2024-01-27T02:49:33;13.27;;;1.43;;
18435;SDS011;9346;52.006;4.720;2024-01-27T02:51:59;1.87;;;1.37;;
18435;SDS011;9346;52.006;4.720;2024-01-27T02:54:26;8.70;;;1.07;;
18435;SDS011;9346;52.006;4.720;2024-01-27T02:56:52;5.60;;;1.37;;
18435;SDS011;9346;52.006;4.720;2024-01-27T02:59:21;2.83;;;1.60;;
18435;SDS011;9346;52.006;4.720;2024-01-27T03:01:48;6.00;;;1.87;;
18435;SDS011;9346;52.006;4.720;2024-01-27T03:04:16;10.13;;;1.60;;
18435;SDS011;9346;52.006;4.720;2024-01-27T03:06:43;8.97;;;1.43;;
18435;SDS011;9346;52.006;4.720;2024-01-27T03:09:10;6.73;;;1.27;;
18435;SDS011;9346;52.006;4.720;2024-01-27T03:11:37;15.90;;;2.30;;
18435;SDS011;9346;52.006;4.720;2024-01-27T03:14:04;5.83;;;2.03;;
18435;SDS011;9346;52.006;4.720;2024-01-27T03:16:32;9.70;;;2.80;;
18435;SDS011;9346;52.006;4.720;2024-01-27T03:18:58;5.67;;;2.70;;
18435;SDS011;9346;52.006;4.720;2024-01-27T03:21:24;6.87;;;2.07;;
18435;SDS011;9346;52.006;4.720;2024-01-27T03:23:51;5.07;;;2.20;;
18435;SDS011;9346;52.006;4.720;2024-01-27T03:26:18;10.90;;;2.57;;
18435;SDS011;9346;52.006;4.720;2024-01-27T03:28:45;6.63;;;2.00;;
18435;SDS011;9346;52.006;4.720;2024-01-27T03:31:12;6.13;;;3.40;;
18435;SDS011;9346;52.006;4.720;2024-01-27T03:33:40;6.33;;;2.83;;
18435;SDS011;9346;52.006;4.720;2024-01-27T03:36:09;7.47;;;2.10;;
18435;SDS011;9346;52.006;4.720;2024-01-27T03:38:36;7.13;;;3.07;;
18435;SDS011;9346;52.006;4.720;2024-01-27T03:41:04;7.93;;;2.97;;
18435;SDS011;9346;52.006;4.720;2024-01-27T03:43:34;10.87;;;3.77;;
18435;SDS011;9346;52.006;4.720;2024-01-27T03:46:01;10.37;;;3.43;;
18435;SDS011;9346;52.006;4.720;2024-01-27T03:48:28;12.33;;;3.77;;
18435;SDS011;9346;52.006;4.720;2024-01-27T03:50:57;10.63;;;3.60;;
18435;SDS011;9346;52.006;4.720;2024-01-27T03:53:23;11.23;;;3.97;;
18435;SDS011;9346;52.006;4.720;2024-01-27T03:55:51;17.70;;;4.60;;
18435;SDS011;9346;52.006;4.720;2024-01-27T03:58:18;12.60;;;3.63;;
18435;SDS011;9346;52.006;4.720;2024-01-27T04:00:44;12.13;;;4.40;;
18435;SDS011;9346;52.006;4.720;2024-01-27T04:03:11;15.63;;;4.20;;
18435;SDS011;9346;52.006;4.720;2024-01-27T04:05:38;12.63;;;4.43;;
18435;SDS011;9346;52.006;4.720;2024-01-27T04:08:07;9.90;;;3.50;;
18435;SDS011;9346;52.006;4.720;2024-01-27T04:10:33;5.70;;;3.73;;
18435;SDS011;9346;52.006;4.720;2024-01-27T04:13:00;11.63;;;4.53;;
18435;SDS011;9346;52.006;4.720;2024-01-27T04:15:27;16.90;;;5.10;;
18435;SDS011;9346;52.006;4.720;2024-01-27T04:17:54;16.30;;;5.43;;
18435;SDS011;9346;52.006;4.720;2024-01-27T04:20:21;14.93;;;5.20;;
18435;SDS011;9346;52.006;4.720;2024-01-27T04:22:47;14.53;;;5.40;;
18435;SDS011;9346;52.006;4.720;2024-01-27T04:25:16;16.47;;;5.83;;
18435;SDS011;9346;52.006;4.720;2024-01-27T04:27:42;14.20;;;5.47;;
18435;SDS011;9346;52.006;4.720;2024-01-27T04:30:10;28.23;;;6.33;;
18435;SDS011;9346;52.006;4.720;2024-01-27T04:32:38;20.70;;;6.40;;
18435;SDS011;9346;52.006;4.720;2024-01-27T04:35:08;9.03;;;4.93;;
18435;SDS011;9346;52.006;4.720;2024-01-27T04:37:35;17.50;;;6.37;;
18435;SDS011;9346;52.006;4.720;2024-01-27T04:40:02;15.30;;;6.43;;
18435;SDS011;9346;52.006;4.720;2024-01-27T04:42:32;12.63;;;6.20;;
18435;SDS011;9346;52.006;4.720;2024-01-27T04:44:59;10.77;;;6.10;;
18435;SDS011;9346;52.006;4.720;2024-01-27T04:47:26;19.63;;;6.80;;
18435;SDS011;9346;52.006;4.720;2024-01-27T04:49:53;13.87;;;6.20;;
18435;SDS011;9346;52.006;4.720;2024-01-27T04:52:20;13.00;;;6.03;;
18435;SDS011;9346;52.006;4.720;2024-01-27T04:54:47;15.70;;;7.10;;
18435;SDS011;9346;52.006;4.720;2024-01-27T04:57:13;20.27;;;8.03;;
18435;SDS011;9346;52.006;4.720;2024-01-27T04:59:42;11.57;;;5.43;;
18435;SDS011;9346;52.006;4.720;2024-01-27T05:02:09;14.40;;;6.03;;
18435;SDS011;9346;52.006;4.720;2024-01-27T05:04:36;11.67;;;6.00;;
18435;SDS011;9346;52.006;4.720;2024-01-27T05:07:03;13.73;;;6.57;;
18435;SDS011;9346;52.006;4.720;2024-01-27T05:09:30;12.63;;;6.87;;
18435;SDS011;9346;52.006;4.720;2024-01-27T05:11:59;13.83;;;6.10;;
18435;SDS011;9346;52.006;4.720;2024-01-27T05:14:26;12.87;;;5.80;;
18435;SDS011;9346;52.006;4.720;2024-01-27T05:16:55;19.33;;;5.60;;
18435;SDS011;9346;52.006;4.720;2024-01-27T05:19:21;8.23;;;5.60;;
18435;SDS011;9346;52.006;4.720;2024-01-27T05:21:48;14.90;;;5.67;;
18435;SDS011;9346;52.006;4.720;2024-01-27T05:24:15;16.47;;;6.13;;
18435;SDS011;9346;52.006;4.720;2024-01-27T05:26:41;10.43;;;5.77;;
18435;SDS011;9346;52.006;4.720;2024-01-27T05:29:08;12.00;;;5.87;;
18435;SDS011;9346;52.006;4.720;2024-01-27T05:31:35;15.53;;;6.33;;
18435;SDS011;9346;52.006;4.720;2024-01-27T05:34:03;16.60;;;7.03;;
18435;SDS011;9346;52.006;4.720;2024-01-27T05:36:30;25.20;;;7.67;;
18435;SDS011;9346;52.006;4.720;2024-01-27T05:38:57;18.67;;;6.37;;
18435;SDS011;9346;52.006;4.720;2024-01-27T05:41:27;17.40;;;6.33;;
18435;SDS011;9346;52.006;4.720;2024-01-27T05:43:55;18.23;;;6.23;;
18435;SDS011;9346;52.006;4.720;2024-01-27T05:46:23;18.07;;;6.10;;
18435;SDS011;9346;52.006;4.720;2024-01-27T05:48:50;12.60;;;6.63;;
18435;SDS011;9346;52.006;4.720;2024-01-27T05:51:20;11.87;;;5.90;;
18435;SDS011;9346;52.006;4.720;2024-01-27T05:53:48;13.67;;;5.93;;
18435;SDS011;9346;52.006;4.720;2024-01-27T05:56:15;16.00;;;6.30;;
18435;SDS011;9346;52.006;4.720;2024-01-27T05:58:43;11.47;;;5.93;;
18435;SDS011;9346;52.006;4.720;2024-01-27T06:01:09;26.70;;;6.97;;
18435;SDS011;9346;52.006;4.720;2024-01-27T06:03:36;14.20;;;6.63;;
18435;SDS011;9346;52.006;4.720;2024-01-27T06:06:03;12.63;;;5.60;;
18435;SDS011;9346;52.006;4.720;2024-01-27T06:08:31;19.57;;;6.17;;
18435;SDS011;9346;52.006;4.720;2024-01-27T06:10:58;9.43;;;5.50;;
18435;SDS011;9346;52.006;4.720;2024-01-27T06:13:26;8.60;;;5.87;;
18435;SDS011;9346;52.006;4.720;2024-01-27T06:15:52;15.63;;;5.77;;
18435;SDS011;9346;52.006;4.720;2024-01-27T06:18:19;14.93;;;6.70;;
18435;SDS011;9346;52.006;4.720;2024-01-27T06:20:46;15.70;;;6.73;;
18435;SDS011;9346;52.006;4.720;2024-01-27T06:23:13;9.93;;;5.47;;
18435;SDS011;9346;52.006;4.720;2024-01-27T06:25:42;19.73;;;6.70;;
18435;SDS011;9346;52.006;4.720;2024-01-27T06:28:09;11.50;;;5.50;;
18435;SDS011;9346;52.006;4.720;2024-01-27T06:30:36;6.33;;;5.03;;
18435;SDS011;9346;52.006;4.720;2024-01-27T06:33:02;9.33;;;6.67;;
18435;SDS011;9346;52.006;4.720;2024-01-27T06:35:29;18.27;;;6.57;;
18435;SDS011;9346;52.006;4.720;2024-01-27T06:37:56;11.07;;;6.00;;
18435;SDS011;9346;52.006;4.720;2024-01-27T06:40:23;14.43;;;6.50;;
18435;SDS011;9346;52.006;4.720;2024-01-27T06:42:51;12.07;;;6.03;;
18435;SDS011;9346;52.006;4.720;2024-01-27T06:45:18;16.03;;;7.00;;
18435;SDS011;9346;52.006;4.720;2024-01-27T06:47:45;11.93;;;5.37;;
18435;SDS011;9346;52.006;4.720;2024-01-27T06:50:12;9.80;;;5.57;;
18435;SDS011;9346;52.006;4.720;2024-01-27T06:52:40;10.33;;;5.33;;
18435;SDS011;9346;52.006;4.720;2024-01-27T06:55:07;11.90;;;5.83;;
18435;SDS011;9346;52.006;4.720;2024-01-27T06:57:36;15.63;;;6.80;;
18435;SDS011;9346;52.006;4.720;2024-01-27T07:00:05;18.30;;;6.40;;
18435;SDS011;9346;52.006;4.720;2024-01-27T07:02:33;13.40;;;6.90;;
18435;SDS011;9346;52.006;4.720;2024-01-27T07:04:59;9.17;;;6.33;;
18435;SDS011;9346;52.006;4.720;2024-01-27T07:07:27;18.47;;;7.33;;
18435;SDS011;9346;52.006;4.720;2024-01-27T07:09:54;17.43;;;6.57;;
18435;SDS011;9346;52.006;4.720;2024-01-27T07:12:22;22.00;;;7.07;;
18435;SDS011;9346;52.006;4.720;2024-01-27T07:14:48;16.87;;;7.53;;
18435;SDS011;9346;52.006;4.720;2024-01-27T07:17:18;20.80;;;8.30;;
18435;SDS011;9346;52.006;4.720;2024-01-27T07:19:44;14.07;;;8.70;;
18435;SDS011;9346;52.006;4.720;2024-01-27T07:22:11;16.00;;;6.17;;
18435;SDS011;9346;52.006;4.720;2024-01-27T07:24:38;15.93;;;8.07;;
18435;SDS011;9346;52.006;4.720;2024-01-27T07:27:06;19.70;;;8.87;;
18435;SDS011;9346;52.006;4.720;2024-01-27T07:29:33;12.03;;;7.87;;
18435;SDS011;9346;52.006;4.720;2024-01-27T07:31:59;16.87;;;7.30;;
18435;SDS011;9346;52.006;4.720;2024-01-27T07:34:28;11.70;;;6.73;;
18435;SDS011;9346;52.006;4.720;2024-01-27T07:36:54;13.13;;;7.50;;
18435;SDS011;9346;52.006;4.720;2024-01-27T07:39:21;13.83;;;7.70;;
18435;SDS011;9346;52.006;4.720;2024-01-27T07:41:48;13.27;;;7.30;;
18435;SDS011;9346;52.006;4.720;2024-01-27T07:44:15;12.90;;;7.30;;
18435;SDS011;9346;52.006;4.720;2024-01-27T07:46:42;13.93;;;7.60;;
18435;SDS011;9346;52.006;4.720;2024-01-27T07:49:08;16.53;;;8.50;;
18435;SDS011;9346;52.006;4.720;2024-01-27T07:51:39;15.83;;;8.07;;
18435;SDS011;9346;52.006;4.720;2024-01-27T07:54:06;15.50;;;8.50;;
18435;SDS011;9346;52.006;4.720;2024-01-27T07:56:33;12.33;;;7.33;;
18435;SDS011;9346;52.006;4.720;2024-01-27T07:59:00;14.10;;;7.03;;
18435;SDS011;9346;52.006;4.720;2024-01-27T08:01:26;12.57;;;7.57;;
18435;SDS011;9346;52.006;4.720;2024-01-27T08:03:53;15.93;;;8.43;;
18435;SDS011;9346;52.006;4.720;2024-01-27T08:06:27;18.43;;;7.57;;
18435;SDS011;9346;52.006;4.720;2024-01-27T08:08:57;14.23;;;8.40;;
18435;SDS011;9346;52.006;4.720;2024-01-27T08:11:24;17.33;;;7.83;;
18435;SDS011;9346;52.006;4.720;2024-01-27T08:13:51;16.93;;;7.80;;
18435;SDS011;9346;52.006;4.720;2024-01-27T08:16:19;17.70;;;7.87;;
18435;SDS011;9346;52.006;4.720;2024-01-27T08:18:49;16.40;;;8.63;;
18435;SDS011;9346;52.006;4.720;2024-01-27T08:21:16;19.00;;;8.67;;
18435;SDS011;9346;52.006;4.720;2024-01-27T08:23:42;16.30;;;8.57;;
18435;SDS011;9346;52.006;4.720;2024-01-27T08:26:11;13.03;;;6.93;;
18435;SDS011;9346;52.006;4.720;2024-01-27T08:28:38;20.53;;;9.13;;
18435;SDS011;9346;52.006;4.720;2024-01-27T08:31:05;15.37;;;7.00;;
18435;SDS011;9346;52.006;4.720;2024-01-27T08:33:31;16.77;;;7.80;;
18435;SDS011;9346;52.006;4.720;2024-01-27T08:36:01;14.03;;;8.77;;
18435;SDS011;9346;52.006;4.720;2024-01-27T08:38:30;18.77;;;9.43;;
18435;SDS011;9346;52.006;4.720;2024-01-27T08:40:56;19.53;;;7.10;;
18435;SDS011;9346;52.006;4.720;2024-01-27T08:43:25;12.77;;;7.13;;
18435;SDS011;9346;52.006;4.720;2024-01-27T08:45:51;23.60;;;9.83;;
18435;SDS011;9346;52.006;4.720;2024-01-27T08:48:19;10.60;;;6.83;;
18435;SDS011;9346;52.006;4.720;2024-01-27T08:50:46;18.77;;;8.53;;
18435;SDS011;9346;52.006;4.720;2024-01-27T08:53:13;13.00;;;7.40;;
18435;SDS011;9346;52.006;4.720;2024-01-27T08:55:40;16.70;;;8.03;;
18435;SDS011;9346;52.006;4.720;2024-01-27T08:58:06;17.17;;;8.03;;
18435;SDS011;9346;52.006;4.720;2024-01-27T09:00:35;16.27;;;8.07;;
18435;SDS011;9346;52.006;4.720;2024-01-27T09:03:01;16.93;;;8.80;;
18435;SDS011;9346;52.006;4.720;2024-01-27T09:05:28;11.17;;;8.30;;
18435;SDS011;9346;52.006;4.720;2024-01-27T09:07:55;15.43;;;7.30;;
18435;SDS011;9346;52.006;4.720;2024-01-27T09:10:22;13.40;;;8.87;;
18435;SDS011;9346;52.006;4.720;2024-01-27T09:12:49;19.07;;;9.57;;
18435;SDS011;9346;52.006;4.720;2024-01-27T09:15:16;26.40;;;8.47;;
18435;SDS011;9346;52.006;4.720;2024-01-27T09:17:45;14.70;;;8.80;;
18435;SDS011;9346;52.006;4.720;2024-01-27T09:20:13;26.47;;;10.60;;
18435;SDS011;9346;52.006;4.720;2024-01-27T09:22:40;15.30;;;9.53;;
18435;SDS011;9346;52.006;4.720;2024-01-27T09:25:09;24.77;;;9.67;;
18435;SDS011;9346;52.006;4.720;2024-01-27T09:27:36;19.00;;;9.33;;
18435;SDS011;9346;52.006;4.720;2024-01-27T09:30:03;19.27;;;9.07;;
18435;SDS011;9346;52.006;4.720;2024-01-27T09:32:32;27.13;;;8.50;;
18435;SDS011;9346;52.006;4.720;2024-01-27T09:35:00;15.67;;;8.73;;
18435;SDS011;9346;52.006;4.720;2024-01-27T09:37:27;25.37;;;9.47;;
18435;SDS011;9346;52.006;4.720;2024-01-27T09:39:54;16.77;;;8.70;;
18435;SDS011;9346;52.006;4.720;2024-01-27T09:42:21;24.80;;;10.23;;
18435;SDS011;9346;52.006;4.720;2024-01-27T09:44:48;23.90;;;9.00;;
18435;SDS011;9346;52.006;4.720;2024-01-27T09:47:15;19.00;;;9.73;;
18435;SDS011;9346;52.006;4.720;2024-01-27T09:49:42;14.23;;;9.13;;
18435;SDS011;9346;52.006;4.720;2024-01-27T09:52:12;26.00;;;9.17;;
18435;SDS011;9346;52.006;4.720;2024-01-27T09:54:40;22.27;;;11.93;;
18435;SDS011;9346;52.006;4.720;2024-01-27T09:57:07;20.57;;;10.13;;
18435;SDS011;9346;52.006;4.720;2024-01-27T09:59:36;24.37;;;10.27;;
18435;SDS011;9346;52.006;4.720;2024-01-27T10:02:06;19.07;;;9.83;;
18435;SDS011;9346;52.006;4.720;2024-01-27T10:04:37;12.93;;;9.57;;
18435;SDS011;9346;52.006;4.720;2024-01-27T10:07:04;28.90;;;10.97;;
18435;SDS011;9346;52.006;4.720;2024-01-27T10:09:33;24.10;;;11.00;;
18435;SDS011;9346;52.006;4.720;2024-01-27T10:12:00;22.10;;;10.63;;
18435;SDS011;9346;52.006;4.720;2024-01-27T10:14:37;32.40;;;11.60;;
18435;SDS011;9346;52.006;4.720;2024-01-27T10:17:04;16.47;;;9.90;;
18435;SDS011;9346;52.006;4.720;2024-01-27T10:19:31;22.57;;;10.10;;
18435;SDS011;9346;52.006;4.720;2024-01-27T10:21:59;22.40;;;10.70;;
18435;SDS011;9346;52.006;4.720;2024-01-27T10:24:27;25.10;;;10.10;;
18435;SDS011;9346;52.006;4.720;2024-01-27T10:26:59;30.73;;;12.20;;
18435;SDS011;9346;52.006;4.720;2024-01-27T10:29:27;30.70;;;12.20;;
18435;SDS011;9346;52.006;4.720;2024-01-27T10:32:06;22.57;;;11.00;;
18435;SDS011;9346;52.006;4.720;2024-01-27T10:34:33;20.07;;;10.00;;
18435;SDS011;9346;52.006;4.720;2024-01-27T10:37:00;17.20;;;9.80;;
18435;SDS011;9346;52.006;4.720;2024-01-27T10:39:27;18.00;;;11.27;;
18435;SDS011;9346;52.006;4.720;2024-01-27T10:41:54;26.47;;;10.77;;
18435;SDS011;9346;52.006;4.720;2024-01-27T10:44:22;18.97;;;10.50;;
18435;SDS011;9346;52.006;4.720;2024-01-27T10:46:50;21.00;;;11.13;;
18435;SDS011;9346;52.006;4.720;2024-01-27T10:49:19;20.83;;;12.13;;
18435;SDS011;9346;52.006;4.720;2024-01-27T10:51:50;23.77;;;10.63;;
18435;SDS011;9346;52.006;4.720;2024-01-27T10:54:23;22.77;;;9.80;;
18435;SDS011;9346;52.006;4.720;2024-01-27T10:56:53;21.50;;;9.90;;
18435;SDS011;9346;52.006;4.720;2024-01-27T10:59:23;25.10;;;10.87;;
18435;SDS011;9346;52.006;4.720;2024-01-27T11:01:52;14.07;;;9.17;;
18435;SDS011;9346;52.006;4.720;2024-01-27T11:04:20;33.43;;;10.57;;
18435;SDS011;9346;52.006;4.720;2024-01-27T11:06:48;20.07;;;9.37;;
18435;SDS011;9346;52.006;4.720;2024-01-27T11:09:15;25.70;;;9.70;;
18435;SDS011;9346;52.006;4.720;2024-01-27T11:11:43;27.67;;;10.77;;
18435;SDS011;9346;52.006;4.720;2024-01-27T11:14:11;19.57;;;9.43;;
18435;SDS011;9346;52.006;4.720;2024-01-27T11:16:40;29.73;;;9.40;;
18435;SDS011;9346;52.006;4.720;2024-01-27T11:19:11;22.20;;;9.80;;
18435;SDS011;9346;52.006;4.720;2024-01-27T11:21:39;25.23;;;9.37;;
18435;SDS011;9346;52.006;4.720;2024-01-27T11:24:12;23.37;;;9.10;;
18435;SDS011;9346;52.006;4.720;2024-01-27T11:26:40;24.40;;;9.10;;
18435;SDS011;9346;52.006;4.720;2024-01-27T11:29:07;23.23;;;10.50;;
18435;SDS011;9346;52.006;4.720;2024-01-27T11:31:41;25.30;;;9.13;;
18435;SDS011;9346;52.006;4.720;2024-01-27T11:34:10;26.97;;;9.37;;
18435;SDS011;9346;52.006;4.720;2024-01-27T11:36:41;20.63;;;9.47;;
18435;SDS011;9346;52.006;4.720;2024-01-27T11:39:22;30.77;;;10.23;;
18435;SDS011;9346;52.006;4.720;2024-01-27T11:41:50;16.47;;;8.33;;
18435;SDS011;9346;52.006;4.720;2024-01-27T11:44:17;19.47;;;8.33;;
18435;SDS011;9346;52.006;4.720;2024-01-27T11:46:46;20.23;;;9.10;;
18435;SDS011;9346;52.006;4.720;2024-01-27T11:49:14;21.87;;;8.87;;
18435;SDS011;9346;52.006;4.720;2024-01-27T11:51:42;21.57;;;7.87;;
18435;SDS011;9346;52.006;4.720;2024-01-27T11:54:09;21.70;;;8.93;;
18435;SDS011;9346;52.006;4.720;2024-01-27T11:56:36;12.63;;;7.90;;
18435;SDS011;9346;52.006;4.720;2024-01-27T11:59:03;20.40;;;8.70;;
18435;SDS011;9346;52.006;4.720;2024-01-27T12:01:28;24.33;;;7.90;;
18435;SDS011;9346;52.006;4.720;2024-01-27T12:03:57;22.57;;;7.50;;
18435;SDS011;9346;52.006;4.720;2024-01-27T12:06:24;17.83;;;8.57;;
18435;SDS011;9346;52.006;4.720;2024-01-27T12:08:52;17.27;;;6.63;;
18435;SDS011;9346;52.006;4.720;2024-01-27T12:11:21;15.90;;;7.63;;
18435;SDS011;9346;52.006;4.720;2024-01-27T12:13:47;14.37;;;6.47;;
18435;SDS011;9346;52.006;4.720;2024-01-27T12:16:14;13.27;;;5.50;;
18435;SDS011;9346;52.006;4.720;2024-01-27T12:18:42;11.90;;;5.50;;
18435;SDS011;9346;52.006;4.720;2024-01-27T12:21:10;24.83;;;5.97;;
18435;SDS011;9346;52.006;4.720;2024-01-27T12:23:47;12.93;;;6.17;;
18435;SDS011;9346;52.006;4.720;2024-01-27T12:26:16;21.30;;;5.50;;
18435;SDS011;9346;52.006;4.720;2024-01-27T12:28:45;13.00;;;4.70;;
18435;SDS011;9346;52.006;4.720;2024-01-27T12:31:12;9.33;;;4.23;;
18435;SDS011;9346;52.006;4.720;2024-01-27T12:33:47;9.20;;;4.77;;
18435;SDS011;9346;52.006;4.720;2024-01-27T12:36:18;9.27;;;4.27;;
18435;SDS011;9346;52.006;4.720;2024-01-27T12:38:47;16.47;;;5.00;;
18435;SDS011;9346;52.006;4.720;2024-01-27T12:41:18;13.83;;;4.70;;
18435;SDS011;9346;52.006;4.720;2024-01-27T12:43:45;18.47;;;3.97;;
18435;SDS011;9346;52.006;4.720;2024-01-27T12:46:12;13.27;;;5.37;;
18435;SDS011;9346;52.006;4.720;2024-01-27T12:48:40;10.80;;;3.90;;
18435;SDS011;9346;52.006;4.720;2024-01-27T12:51:08;11.33;;;4.23;;
18435;SDS011;9346;52.006;4.720;2024-01-27T12:53:36;14.03;;;4.40;;
18435;SDS011;9346;52.006;4.720;2024-01-27T12:56:06;11.20;;;4.70;;
18435;SDS011;9346;52.006;4.720;2024-01-27T12:58:33;11.37;;;4.67;;
18435;SDS011;9346;52.006;4.720;2024-01-27T13:01:01;15.50;;;5.33;;
18435;SDS011;9346;52.006;4.720;2024-01-27T13:03:27;18.20;;;5.27;;
18435;SDS011;9346;52.006;4.720;2024-01-27T13:05:54;10.03;;;4.40;;
18435;SDS011;9346;52.006;4.720;2024-01-27T13:08:22;16.47;;;5.13;;
18435;SDS011;9346;52.006;4.720;2024-01-27T13:10:51;11.00;;;4.30;;
18435;SDS011;9346;52.006;4.720;2024-01-27T13:13:17;18.93;;;5.97;;
18435;SDS011;9346;52.006;4.720;2024-01-27T13:15:44;12.77;;;5.03;;
18435;SDS011;9346;52.006;4.720;2024-01-27T13:18:11;10.03;;;4.93;;
18435;SDS011;9346;52.006;4.720;2024-01-27T13:20:38;12.00;;;5.20;;
18435;SDS011;9346;52.006;4.720;2024-01-27T13:23:06;12.20;;;5.10;;
18435;SDS011;9346;52.006;4.720;2024-01-27T13:25:33;9.17;;;5.17;;
18435;SDS011;9346;52.006;4.720;2024-01-27T13:28:01;19.17;;;5.50;;
18435;SDS011;9346;52.006;4.720;2024-01-27T13:30:28;16.60;;;4.43;;
18435;SDS011;9346;52.006;4.720;2024-01-27T13:32:55;11.83;;;4.67;;
18435;SDS011;9346;52.006;4.720;2024-01-27T13:35:23;17.20;;;4.83;;
18435;SDS011;9346;52.006;4.720;2024-01-27T13:37:51;17.03;;;6.43;;
18435;SDS011;9346;52.006;4.720;2024-01-27T13:40:18;15.30;;;5.47;;
18435;SDS011;9346;52.006;4.720;2024-01-27T13:42:44;13.37;;;5.00;;
18435;SDS011;9346;52.006;4.720;2024-01-27T13:45:12;13.97;;;4.97;;
18435;SDS011;9346;52.006;4.720;2024-01-27T13:47:39;11.23;;;4.83;;
18435;SDS011;9346;52.006;4.720;2024-01-27T13:50:06;15.83;;;5.70;;
18435;SDS011;9346;52.006;4.720;2024-01-27T13:52:34;16.27;;;5.60;;
18435;SDS011;9346;52.006;4.720;2024-01-27T13:55:01;16.37;;;5.17;;
18435;SDS011;9346;52.006;4.720;2024-01-27T13:57:28;10.07;;;4.73;;
18435;SDS011;9346;52.006;4.720;2024-01-27T13:59:55;13.27;;;5.83;;
18435;SDS011;9346;52.006;4.720;2024-01-27T14:02:24;16.83;;;5.73;;
18435;SDS011;9346;52.006;4.720;2024-01-27T14:04:51;18.87;;;5.47;;
18435;SDS011;9346;52.006;4.720;2024-01-27T14:07:18;15.07;;;6.13;;
18435;SDS011;9346;52.006;4.720;2024-01-27T14:09:45;11.63;;;5.47;;
18435;SDS011;9346;52.006;4.720;2024-01-27T14:12:13;13.87;;;5.37;;
18435;SDS011;9346;52.006;4.720;2024-01-27T14:14:40;16.17;;;5.57;;
18435;SDS011;9346;52.006;4.720;2024-01-27T14:17:07;19.93;;;5.73;;
18435;SDS011;9346;52.006;4.720;2024-01-27T14:19:35;18.03;;;6.47;;
18435;SDS011;9346;52.006;4.720;2024-01-27T14:22:02;14.93;;;5.83;;
18435;SDS011;9346;52.006;4.720;2024-01-27T14:24:29;16.77;;;5.57;;
18435;SDS011;9346;52.006;4.720;2024-01-27T14:26:58;24.83;;;5.93;;
18435;SDS011;9346;52.006;4.720;2024-01-27T14:29:25;10.97;;;5.33;;
18435;SDS011;9346;52.006;4.720;2024-01-27T14:31:52;12.63;;;5.10;;
18435;SDS011;9346;52.006;4.720;2024-01-27T14:34:18;12.57;;;5.53;;
18435;SDS011;9346;52.006;4.720;2024-01-27T14:36:46;16.87;;;5.73;;
18435;SDS011;9346;52.006;4.720;2024-01-27T14:39:13;14.77;;;5.73;;
18435;SDS011;9346;52.006;4.720;2024-01-27T14:41:40;11.10;;;4.97;;
18435;SDS011;9346;52.006;4.720;2024-01-27T14:44:06;13.23;;;5.33;;
18435;SDS011;9346;52.006;4.720;2024-01-27T14:46:36;15.87;;;4.87;;
18435;SDS011;9346;52.006;4.720;2024-01-27T14:49:05;11.37;;;5.43;;
18435;SDS011;9346;52.006;4.720;2024-01-27T14:51:33;20.27;;;6.23;;
18435;SDS011;9346;52.006;4.720;2024-01-27T14:54:01;10.03;;;5.30;;